Latest Weather Observations for Point Stuart

IDD60801

Issued at 12:31 pm CST Friday 30 September 2016 (issued every 30 minutes, with the page automatically refreshed every 10 minutes)

About weather observations | Map of weather stations | Latest weather observations for NT | Other Formats
Station Details ID: 014254 Name: POINT STUART Lat: -12.24 Lon: 131.88 Height: 1.0 m
Data from the previous 72 hours. | See also: Recent months at Point Stuart
Date/Time
CST
Temp
°C
App
Temp
°C
Dew
Point
°C
Rel
Hum
%
Delta-T
°C
Wind Press
QNH
hPa
Press
MSL
hPa
Rain since
9am
mm
Dir  Spd
km/h
Gust
km/h
Spd
kts
Gust
kts
30/12:30pm 32.1 37.0 25.9 70 4.4 NNW 11 20 6 11 1009.5 - 0.0
30/12:00pm 31.6 36.7 25.5 70 4.3 N 9 15 5 8 1010.1 1010.1 0.0
30/11:30am 32.3 38.1 26.6 72 4.1 NNE 9 17 5 9 1010.2 - 0.0
30/11:00am 32.3 38.0 27.1 74 3.8 NNE 11 20 6 11 1010.6 - 0.0
30/10:30am 31.3 37.7 27.0 78 3.1 N 7 13 4 7 1010.6 - 0.0
30/10:00am 30.1 35.1 26.0 78 2.9 NW 11 15 6 8 1010.7 - 0.0
30/09:30am 29.8 35.6 26.0 80 2.7 NNW 7 13 4 7 1010.4 - 0.0
30/09:00am 30.1 36.5 26.7 82 2.4 N 6 11 3 6 1010.2 1010.2 0.0
30/08:30am 29.9 36.1 26.7 83 2.3 NNW 7 11 4 6 1010.0 - 0.0
30/08:00am 29.8 36.4 27.0 85 2.0 N 6 9 3 5 1009.6 - 0.0
30/07:30am 29.0 36.4 27.0 89 1.4 N 2 7 1 4 1009.4 - 0.0
30/07:00am 28.0 35.4 26.4 91 1.1 CALM 0 4 0 2 1009.2 - 0.0
30/06:30am 27.7 34.0 25.9 90 1.3 NNE 4 7 2 4 1009.0 - 0.0
30/06:00am 27.7 33.6 25.9 90 1.3 N 6 7 3 4 1008.5 1008.5 0.0
30/05:30am 27.7 34.6 25.7 89 1.4 CALM 0 6 0 3 1008.2 - 0.0
30/05:00am 27.9 33.7 25.7 88 1.6 N 6 9 3 5 1007.8 - 0.0
30/04:30am 27.9 33.5 25.7 88 1.6 N 7 11 4 6 1007.6 - 0.0
30/04:00am 28.0 33.1 25.6 87 1.7 NNW 9 13 5 7 1007.5 - 0.0
30/03:30am 28.1 33.3 25.7 87 1.7 NNW 9 13 5 7 1007.6 - 0.0
30/03:00am 28.2 33.3 25.6 86 1.8 NNW 9 15 5 8 1007.6 1007.6 0.0
30/02:30am 28.2 33.2 25.4 85 2.0 NNW 9 13 5 7 1007.9 - 0.0
30/02:00am 28.2 32.8 25.4 85 2.0 NNW 11 19 6 10 1008.3 - 0.0
30/01:30am 28.4 33.5 25.6 85 2.0 NNW 9 13 5 7 1008.6 - 0.0
30/01:00am 28.5 33.6 25.5 84 2.1 NNW 9 15 5 8 1009.0 - 0.0
30/12:30am 28.5 33.1 25.3 83 2.2 NNW 11 20 6 11 1009.0 - 0.0
30/12:00am 28.8 33.4 25.4 82 2.4 NNW 11 19 6 10 1009.3 1009.3 0.0
 
Date/Time
CST
Temp
°C
App
Temp
°C
Dew
Point
°C
Rel
Hum
%
Delta-T
°C
Wind Press
QNH
hPa
Press
MSL
hPa
Rain since
9am
mm
Dir  Spd
km/h
Gust
km/h
Spd
kts
Gust
kts
29/11:30pm 29.0 33.2 25.4 81 2.5 NNW 13 20 7 11 1009.5 - 0.0
29/11:00pm 29.2 33.8 25.4 80 2.7 NNW 11 20 6 11 1009.5 - 0.0
29/10:30pm 29.0 32.6 25.0 79 2.8 NNW 15 19 8 10 1009.4 - 0.0
29/10:00pm 29.4 34.4 25.4 79 2.8 NNW 9 15 5 8 1009.4 - 0.0
29/09:30pm 29.3 33.0 24.6 76 3.3 NNW 13 20 7 11 1008.8 - 0.0
29/09:00pm 29.2 32.5 23.9 73 3.7 NNW 13 22 7 12 1008.6 1008.6 0.0
29/08:30pm 29.5 32.2 23.4 69 4.2 NNW 15 20 8 11 1008.4 - 0.0
29/08:00pm 29.3 31.8 21.8 64 5.0 NNW 11 19 6 10 1007.9 - 0.0
29/07:30pm 29.3 32.2 21.8 64 5.0 NNW 9 15 5 8 1007.3 - 0.0
29/07:00pm 29.0 31.9 21.7 64 4.9 NNW 9 15 5 8 1006.8 - 0.0
29/06:30pm 30.1 34.1 23.8 69 4.4 NW 9 11 5 6 1006.7 - 0.0
29/06:00pm 30.5 35.6 24.6 70 4.1 NNE 6 9 3 5 1007.2 1007.2 0.0
29/05:30pm 30.4 35.0 24.8 72 3.9 N 9 15 5 8 1006.8 - 0.0
29/05:00pm 30.6 34.2 25.0 72 3.9 NNW 15 20 8 11 1006.9 - 0.0
29/04:30pm 30.4 33.9 24.8 72 3.9 NNW 15 22 8 12 1006.5 - 0.0
29/04:00pm 30.7 34.1 24.1 68 4.6 N 13 20 7 11 1006.1 - 0.0
29/03:30pm 32.5 36.1 25.6 67 4.9 NNW 17 24 9 13 1006.2 - 0.0
29/03:00pm 32.6 36.7 25.7 67 4.9 N 15 22 8 12 1006.3 1006.3 0.0
29/02:30pm 33.0 37.2 26.0 66 5.0 N 15 28 8 15 1006.5 - 0.0
29/02:00pm 32.7 36.4 25.8 67 4.9 N 17 26 9 14 1007.1 - 0.0
29/01:30pm 32.9 37.3 26.2 68 4.8 N 15 24 8 13 1007.7 - 0.0
29/01:00pm 33.2 38.2 26.5 68 4.8 N 13 22 7 12 1008.1 - 0.0
29/12:30pm 32.9 37.8 26.4 68 4.7 NNW 13 20 7 11 1008.5 - 0.0
29/12:00pm 32.7 37.8 26.7 70 4.3 N 13 20 7 11 1009.0 1009.0 0.0
29/11:30am 32.5 37.7 26.8 72 4.1 NNW 13 20 7 11 1009.5 - 0.0
29/11:00am 31.8 37.0 26.8 75 3.6 NW 13 20 7 11 1009.9 - 0.0
29/10:30am 31.4 37.6 26.7 76 3.4 NW 7 15 4 8 1010.3 - 0.0
29/10:00am 31.2 36.8 26.9 78 3.1 NNW 11 17 6 9 1010.4 - 0.0
29/09:30am 30.7 37.3 27.3 82 2.5 NW 7 13 4 7 1010.4 - 0.0
29/09:00am 30.0 36.8 27.2 85 2.0 NW 6 11 3 6 1010.0 1010.0 0.0
29/08:30am 29.1 36.3 27.3 90 1.3 S 4 7 2 4 1009.6 - 0.0
29/08:00am 28.1 34.7 26.9 93 0.9 S 6 7 3 4 1009.2 - 0.0
29/07:30am 26.6 33.4 25.6 94 0.7 CALM 0 0 0 0 1008.8 - 0.0
29/07:00am 25.2 30.6 23.8 92 1.0 SSW 2 6 1 3 1008.4 - 0.0
29/06:30am 25.0 30.4 23.2 90 1.2 CALM 0 0 0 0 1008.3 - 0.0
29/06:00am 25.0 30.3 23.1 89 1.3 CALM 0 0 0 0 1008.2 1008.2 0.0
29/05:30am 25.3 30.7 23.2 88 1.4 CALM 0 0 0 0 1007.9 - 0.0
29/05:00am 26.1 31.9 24.0 88 1.4 CALM 0 7 0 4 1007.7 - 0.0
29/04:30am 26.6 32.6 24.3 87 1.6 CALM 0 0 0 0 1007.7 - 0.0
29/04:00am 27.0 33.1 24.5 86 1.7 CALM 0 0 0 0 1007.7 - 0.0
29/03:30am 27.4 33.0 24.8 86 1.8 NNW 4 7 2 4 1007.6 - 0.0
29/03:00am 27.6 32.2 24.8 85 2.0 NW 9 11 5 6 1007.8 1007.8 0.0
29/02:30am 27.7 32.6 24.7 84 2.1 NNW 7 11 4 6 1008.1 - 0.0
29/02:00am 27.8 32.3 24.6 83 2.2 NW 9 11 5 6 1008.7 - 0.0
29/01:30am 27.9 32.7 24.5 82 2.4 NNW 7 11 4 6 1009.0 - 0.0
29/01:00am 28.1 32.2 24.5 81 2.5 NW 11 15 6 8 1009.3 - 0.0
29/12:30am 28.3 32.4 24.5 80 2.6 WNW 11 15 6 8 1009.5 - 0.0
29/12:00am 28.4 32.3 24.2 78 2.9 NW 11 15 6 8 1009.7 1009.7 0.0
 
Date/Time
CST
Temp
°C
App
Temp
°C
Dew
Point
°C
Rel
Hum
%
Delta-T
°C
Wind Press
QNH
hPa
Press
MSL
hPa
Rain since
9am
mm
Dir  Spd
km/h
Gust
km/h
Spd
kts
Gust
kts
28/11:30pm 28.6 32.7 23.9 75 3.2 NNW 9 15 5 8 1009.9 - 0.0
28/11:00pm 28.6 32.4 23.5 74 3.5 NNW 9 11 5 6 1009.9 - 0.0
28/10:30pm 28.6 32.1 22.8 71 3.9 NNW 9 15 5 8 1010.0 - 0.0
28/10:00pm 28.6 31.8 22.3 68 4.3 NNW 9 13 5 7 1009.8 - 0.0
28/09:30pm 28.9 32.1 22.4 68 4.4 NNW 9 13 5 7 1009.6 - 0.0
28/09:00pm 28.9 31.1 21.9 66 4.7 NNW 13 17 7 9 1009.3 1009.3 0.0
28/08:30pm 28.5 31.3 20.8 63 5.1 NNW 7 11 4 6 1009.0 - 0.0
28/08:00pm 28.7 31.6 20.7 62 5.3 NNW 6 9 3 5 1008.5 - 0.0
28/07:30pm 29.2 32.1 20.6 59 5.7 NNW 6 7 3 4 1008.2 - 0.0
28/07:00pm 29.8 32.6 20.4 57 6.2 N 6 9 3 5 1007.9 - 0.0
28/06:30pm 31.1 34.2 21.0 55 6.8 NNW 6 9 3 5 1008.0 - 0.0
28/06:00pm 32.3 35.2 21.8 54 7.1 NW 9 17 5 9 1007.8 1007.8 0.0
28/05:30pm 32.5 35.1 22.0 54 7.1 NNW 11 17 6 9 1007.5 - 0.0
28/05:00pm 32.8 35.4 22.0 53 7.3 NNW 11 20 6 11 1007.4 - 0.0
28/04:30pm 32.9 35.4 22.4 54 7.2 NW 13 19 7 10 1007.4 - 0.0
28/04:00pm 32.8 35.6 22.3 54 7.2 NNW 11 19 6 10 1007.5 - 0.0
28/03:30pm 33.0 35.5 22.4 53 7.3 NNW 13 19 7 10 1007.8 - 0.0
28/03:00pm 32.6 35.6 22.7 56 6.8 N 11 20 6 11 1008.2 1008.2 0.0
28/02:30pm 32.9 36.2 23.2 56 6.7 NNW 11 19 6 10 1008.7 - 0.0
28/02:00pm 32.8 35.8 23.4 57 6.5 N 13 22 7 12 1009.2 - 0.0
28/01:30pm 32.8 36.2 23.4 57 6.5 NNW 11 20 6 11 1009.6 - 0.0
28/01:00pm 32.2 35.6 23.4 59 6.1 N 11 20 6 11 1010.1 - 0.0
28/12:30pm 32.2 36.1 24.3 63 5.5 NNW 11 26 6 14 1010.7 - 0.0
28/12:00pm 32.2 36.2 25.0 65 5.1 N 13 20 7 11 1010.9 1010.9 0.0
28/11:30am 31.6 36.1 25.2 69 4.5 NNW 11 19 6 10 1011.2 - 0.0
28/11:00am 31.5 36.6 26.1 73 3.9 NNW 11 20 6 11 1011.4 - 0.0
28/10:30am 31.0 36.2 26.3 76 3.4 NW 11 19 6 10 1011.7 - 0.0
28/10:00am 30.2 35.9 26.4 80 2.7 N 9 15 5 8 1011.7 - 0.0
28/09:30am 29.4 35.4 26.4 84 2.1 N 7 17 4 9 1011.7 - 0.0
28/09:00am 29.1 35.1 26.9 88 1.6 NNW 9 13 5 7 1011.7 1011.7 0.0
28/08:30am 28.2 35.8 26.8 92 1.0 CALM 0 0 0 0 1011.7 - 0.0
28/08:00am 27.3 34.3 26.4 95 0.6 SSW 2 7 1 4 1011.5 - 0.0
28/07:30am 26.5 33.6 26.0 97 0.4 CALM 0 0 0 0 1011.0 - 0.0
28/07:00am 25.8 31.9 25.1 96 0.5 SSE 2 6 1 3 1010.4 - 0.0
28/06:30am 25.5 31.0 24.6 95 0.6 SSE 4 7 2 4 1010.1 - 0.0
28/06:00am 25.4 30.3 24.4 94 0.7 S 6 7 3 4 1009.7 1009.7 0.0
28/05:30am 25.4 30.2 24.2 93 0.8 SSE 6 7 3 4 1009.3 - 0.0
28/05:00am 25.6 30.4 24.2 92 1.0 S 6 7 3 4 1009.1 - 0.0
28/04:30am 26.0 30.8 24.4 91 1.1 S 7 7 4 4 1009.0 - 0.0
28/04:00am 26.2 31.1 24.4 90 1.2 S 6 7 3 4 1008.8 - 0.0
28/03:30am 26.4 31.7 24.4 89 1.4 SSW 4 7 2 4 1008.7 - 0.0
28/03:00am 27.0 33.3 24.8 88 1.5 CALM 0 0 0 0 1008.7 1008.7 0.0
28/02:30am 27.4 32.7 25.2 88 1.5 WSW 7 11 4 6 1008.9 - 0.0
28/02:00am 27.6 31.7 25.2 87 1.7 WNW 13 17 7 9 1009.1 - 0.0
28/01:30am 27.2 31.6 24.5 85 1.9 NNW 9 15 5 8 1009.1 - 0.0
28/01:00am 27.6 31.8 24.8 85 2.0 NW 11 15 6 8 1009.3 - 0.0
28/12:30am 27.9 32.6 24.9 84 2.1 NNW 9 13 5 7 1009.9 - 0.0
28/12:00am 28.1 32.8 24.9 83 2.2 NNW 9 13 5 7 1010.2 1010.2 0.0
 
Date/Time
CST
Temp
°C
App
Temp
°C
Dew
Point
°C
Rel
Hum
%
Delta-T
°C
Wind Press
QNH
hPa
Press
MSL
hPa
Rain since
9am
mm
Dir  Spd
km/h
Gust
km/h
Spd
kts
Gust
kts
27/11:30pm 28.2 32.8 24.8 82 2.4 NNW 9 17 5 9 1010.3 - 0.0
27/11:00pm 28.3 32.5 24.7 81 2.5 NNW 11 17 6 9 1010.4 - 0.0
27/10:30pm 28.5 32.7 24.7 80 2.7 NNW 11 19 6 10 1010.3 - 0.0
27/10:00pm 28.7 32.8 24.5 78 2.9 NNW 11 15 6 8 1010.1 - 0.0
27/09:30pm 28.8 32.6 24.1 76 3.3 NNW 11 20 6 11 1010.0 - 0.0
27/09:00pm 28.9 32.5 23.8 74 3.5 NNW 11 20 6 11 1009.5 1009.5 0.0
27/08:30pm 29.1 32.6 23.5 72 3.9 NNW 11 15 6 8 1009.3 - 0.0
27/08:00pm 29.2 32.7 22.9 69 4.3 NNW 9 15 5 8 1009.2 - 0.0
27/07:30pm 29.4 32.9 22.9 68 4.4 N 9 13 5 7 1009.0 - 0.0
27/07:00pm 29.6 33.2 22.3 65 4.9 N 7 13 4 7 1008.6 - 0.0
27/06:30pm 30.3 34.0 22.5 63 5.3 N 7 17 4 9 1008.1 - 0.0
27/06:00pm 31.3 35.2 22.9 61 5.8 N 7 13 4 7 1008.0 1008.0 0.0
27/05:30pm 32.0 35.9 23.0 59 6.2 N 7 11 4 6 1007.6 - 0.0
27/05:00pm 32.5 36.7 23.4 58 6.3 N 7 13 4 7 1007.6 - 0.0
27/04:30pm 32.1 35.7 23.1 59 6.2 N 9 13 5 7 1007.4 - 0.0
27/04:00pm 32.4 36.3 23.6 59 6.1 N 9 17 5 9 1007.6 - 0.0
27/03:30pm 32.6 36.4 24.1 61 5.9 N 11 17 6 9 1007.9 - 0.0
27/03:00pm 32.5 35.9 24.0 61 5.9 N 13 24 7 13 1008.3 1008.3 0.0
27/02:30pm 32.8 36.7 24.8 62 5.6 N 13 20 7 11 1008.6 - 0.0
27/02:00pm 32.4 35.8 24.7 64 5.4 N 15 24 8 13 1008.8 - 0.0
27/01:30pm 33.1 37.1 25.6 64 5.3 N 15 24 8 13 1009.2 - 0.0
27/01:00pm 33.0 37.9 25.8 66 5.1 N 11 19 6 10 1009.7 - 0.0

Other Formats:

Comma delimited format used in spreadsheet applications
http://www.bom.gov.au/fwo/IDD60801/IDD60801.94127.axf

JavaScript Object Notation format (JSON) in row-major order
http://www.bom.gov.au/fwo/IDD60801/IDD60801.94127.json